メインページ
METAR-TAF:

METAR-TAF

空港 :

ウォータールー, オンタリオ州, カナダ

緯度: 43-28N, 経度: 080-23W, 海抜: 317m

現時点の気象観測

当レポートは37分前の06:00(UTC)に作成
の風 2kt
気温 4°C
湿度 93%
気圧 1017 hPa
視程: 14.5km
高度11000ftの雲はほとんどない

METAR: CYKF 040600Z AUTO 36002KT 9SM FEW110 04/03 A3002 RMK SLP173

時間: 02:37 (06:37 UTC)

予報

当レポートは4時間59分前の01:38(UTC)に作成
予報は04日の 02時(UTC)から 04日の 14時(UTC)まで有効
北東の風 6kt
視程: 10km
高度2000ftの雲は散在している
高度3000ftの千切れ雲あり
04日の 02時(UTC)から 04日の 06時(UTC)まで一時的に
高度2000ftの千切れ雲あり
高度3000ftの千切れ雲あり
04日の 0600時(UTC)から
変向風 3kt
視程: 10km
高度2500ftの千切れ雲あり
04日の 06時(UTC)から 04日の 14時(UTC)まで一時的に
視程: 8.0km
高度800ftの雲は散在している
高度1500ftの千切れ雲あり
確率 30%
04日の 06時(UTC)から 04日の 13時(UTC)まで
視程: 3.2km
高度600ftの曇り

TAF: CYKF 040138Z 0402/0414 05006KT P6SM SCT020 BKN030 TEMPO 0402/0406 BKN020 BKN030 FM040600 VRB03KT P6SM BKN025 TEMPO 0406/0414 5SM BR SCT008 BKN015 PROB30 0406/0413 2SM BR OVC006 RMK FCST BASED ON AUTO OBS. NXT FCST BY 040800Z

4,000以上の空港の気象観測と天気予報(METAR報とTAF報)

利用可能な観測所は地図上に黄色い丸と赤い丸で示す。

丸の上にカーソルを重ねると観測所名を参照できる。

次にクリックすると気象観測と天気予報を参照できる。

マップの切り替え:黒色「×」印の緑ボタンをクリックして拡大、「-」印の緑ボタンをクリックして縮小、緑色の三角印をクリックして隣りの地図に切り替え


METAR-TAF: